sensor_id;sensor_type;location;lat;lon;timestamp;pressure;altitude;pressure_sealevel;temperature;humidity
71344;BME280;59146;43.850;25.948;2023-02-20T00:00:35;101112.66;;;10.64;61.71
71344;BME280;59146;43.850;25.948;2023-02-20T00:03:01;101104.44;;;10.55;61.88
71344;BME280;59146;43.850;25.948;2023-02-20T00:05:27;101013.66;;;9.91;62.23
71344;BME280;59146;43.850;25.948;2023-02-20T00:07:52;101101.84;;;10.37;62.61
71344;BME280;59146;43.850;25.948;2023-02-20T00:10:18;101088.94;;;10.34;62.66
71344;BME280;59146;43.850;25.948;2023-02-20T00:12:44;101086.69;;;10.27;62.78
71344;BME280;59146;43.850;25.948;2023-02-20T00:15:13;101063.13;;;10.11;63.25
71344;BME280;59146;43.850;25.948;2023-02-20T00:17:38;101091.25;;;10.23;63.31
71344;BME280;59146;43.850;25.948;2023-02-20T00:20:04;101077.38;;;10.04;63.70
71344;BME280;59146;43.850;25.948;2023-02-20T00:22:30;101056.50;;;10.04;63.45
71344;BME280;59146;43.850;25.948;2023-02-20T00:24:55;101013.50;;;9.77;63.34
71344;BME280;59146;43.850;25.948;2023-02-20T00:27:21;101063.91;;;10.13;63.08
71344;BME280;59146;43.850;25.948;2023-02-20T00:29:46;101039.59;;;9.94;63.26
71344;BME280;59146;43.850;25.948;2023-02-20T00:32:12;101089.09;;;10.31;63.14
71344;BME280;59146;43.850;25.948;2023-02-20T00:34:38;101093.16;;;10.37;62.81
71344;BME280;59146;43.850;25.948;2023-02-20T00:37:03;101089.09;;;10.31;62.99
71344;BME280;59146;43.850;25.948;2023-02-20T00:39:31;101100.22;;;10.35;63.04
71344;BME280;59146;43.850;25.948;2023-02-20T00:41:56;101097.06;;;10.28;63.22
71344;BME280;59146;43.850;25.948;2023-02-20T00:44:23;101012.16;;;9.69;63.45
71344;BME280;59146;43.850;25.948;2023-02-20T00:46:49;101015.66;;;9.86;63.18
71344;BME280;59146;43.850;25.948;2023-02-20T00:49:14;101014.25;;;9.79;63.26
71344;BME280;59146;43.850;25.948;2023-02-20T00:51:40;101025.16;;;9.87;63.23
71344;BME280;59146;43.850;25.948;2023-02-20T00:54:05;101097.38;;;10.22;63.54
71344;BME280;59146;43.850;25.948;2023-02-20T00:56:30;101047.03;;;9.85;64.19
71344;BME280;59146;43.850;25.948;2023-02-20T00:58:56;101038.13;;;9.89;63.38
71344;BME280;59146;43.850;25.948;2023-02-20T01:01:22;101107.66;;;10.25;63.34
71344;BME280;59146;43.850;25.948;2023-02-20T01:03:49;100954.78;;;9.16;63.84
71344;BME280;59146;43.850;25.948;2023-02-20T01:06:15;101081.03;;;9.83;64.05
71344;BME280;59146;43.850;25.948;2023-02-20T01:08:40;101053.22;;;9.65;64.37
71344;BME280;59146;43.850;25.948;2023-02-20T01:11:06;101048.31;;;9.59;64.03
71344;BME280;59146;43.850;25.948;2023-02-20T01:13:31;101101.22;;;9.80;64.38
71344;BME280;59146;43.850;25.948;2023-02-20T01:15:57;101114.09;;;9.83;64.99
71344;BME280;59146;43.850;25.948;2023-02-20T01:18:22;101120.59;;;9.93;64.46
71344;BME280;59146;43.850;25.948;2023-02-20T01:20:48;101056.66;;;9.66;64.17
71344;BME280;59146;43.850;25.948;2023-02-20T01:23:13;101116.19;;;9.93;64.26
71344;BME280;59146;43.850;25.948;2023-02-20T01:25:39;101088.47;;;9.55;64.86
71344;BME280;59146;43.850;25.948;2023-02-20T01:28:05;101131.75;;;9.78;65.35
71344;BME280;59146;43.850;25.948;2023-02-20T01:30:30;101047.03;;;9.30;65.26
71344;BME280;59146;43.850;25.948;2023-02-20T01:32:55;101067.59;;;9.36;65.20
71344;BME280;59146;43.850;25.948;2023-02-20T01:35:21;101125.66;;;9.77;65.38
71344;BME280;59146;43.850;25.948;2023-02-20T01:37:46;101047.91;;;9.31;65.45
71344;BME280;59146;43.850;25.948;2023-02-20T01:40:20;101103.97;;;9.58;65.45
71344;BME280;59146;43.850;25.948;2023-02-20T01:42:47;101028.69;;;9.15;65.75
71344;BME280;59146;43.850;25.948;2023-02-20T01:45:30;101108.91;;;9.45;66.14
71344;BME280;59146;43.850;25.948;2023-02-20T01:47:56;101049.16;;;9.04;66.52
71344;BME280;59146;43.850;25.948;2023-02-20T01:50:26;101105.44;;;9.45;66.18
71344;BME280;59146;43.850;25.948;2023-02-20T01:52:57;101111.88;;;9.38;66.57
71344;BME280;59146;43.850;25.948;2023-02-20T01:55:48;101128.09;;;9.44;66.81
71344;BME280;59146;43.850;25.948;2023-02-20T01:58:21;101042.31;;;8.82;66.77
71344;BME280;59146;43.850;25.948;2023-02-20T02:00:47;101029.91;;;8.69;67.29
71344;BME280;59146;43.850;25.948;2023-02-20T02:03:17;101118.19;;;9.14;67.33
71344;BME280;59146;43.850;25.948;2023-02-20T02:05:48;101084.22;;;8.97;67.43
71344;BME280;59146;43.850;25.948;2023-02-20T02:08:17;101131.72;;;9.22;67.48
71344;BME280;59146;43.850;25.948;2023-02-20T02:13:19;101163.00;;;9.22;67.77
71344;BME280;59146;43.850;25.948;2023-02-20T02:15:45;101139.81;;;9.16;67.42
71344;BME280;59146;43.850;25.948;2023-02-20T02:29:26;101189.22;;;9.19;68.13
71344;BME280;59146;43.850;25.948;2023-02-20T02:40:53;101202.13;;;9.02;68.30
71344;BME280;59146;43.850;25.948;2023-02-20T02:43:47;101130.09;;;8.80;67.73
71344;BME280;59146;43.850;25.948;2023-02-20T02:46:57;101169.16;;;9.01;67.46
71344;BME280;59146;43.850;25.948;2023-02-20T02:51:53;101215.66;;;9.10;67.82
71344;BME280;59146;43.850;25.948;2023-02-20T02:54:25;101239.53;;;9.21;67.78
71344;BME280;59146;43.850;25.948;2023-02-20T02:56:51;101157.66;;;8.66;67.85
71344;BME280;59146;43.850;25.948;2023-02-20T02:59:21;101239.13;;;9.10;67.97
71344;BME280;59146;43.850;25.948;2023-02-20T03:01:58;101247.41;;;9.19;67.86
71344;BME280;59146;43.850;25.948;2023-02-20T03:04:27;101199.09;;;8.92;67.51
71344;BME280;59146;43.850;25.948;2023-02-20T03:06:58;101190.22;;;8.76;67.88
71344;BME280;59146;43.850;25.948;2023-02-20T03:09:55;101254.13;;;9.05;68.45
71344;BME280;59146;43.850;25.948;2023-02-20T03:12:23;101216.78;;;8.84;68.20
71344;BME280;59146;43.850;25.948;2023-02-20T03:15:05;101248.50;;;9.14;67.98
71344;BME280;59146;43.850;25.948;2023-02-20T03:20:43;101229.94;;;8.81;68.35
71344;BME280;59146;43.850;25.948;2023-02-20T03:23:13;101195.59;;;8.71;68.33
71344;BME280;59146;43.850;25.948;2023-02-20T03:25:50;101251.38;;;9.08;68.10
71344;BME280;59146;43.850;25.948;2023-02-20T03:28:24;101261.81;;;8.88;68.61
71344;BME280;59146;43.850;25.948;2023-02-20T03:30:55;101256.06;;;9.00;68.10
71344;BME280;59146;43.850;25.948;2023-02-20T03:33:45;101223.03;;;8.80;68.54
71344;BME280;59146;43.850;25.948;2023-02-20T03:36:36;101229.25;;;8.77;68.48
71344;BME280;59146;43.850;25.948;2023-02-20T03:39:26;101250.78;;;8.81;68.82
71344;BME280;59146;43.850;25.948;2023-02-20T03:42:14;101223.00;;;8.60;68.60
71344;BME280;59146;43.850;25.948;2023-02-20T03:45:00;101232.41;;;8.42;69.01
71344;BME280;59146;43.850;25.948;2023-02-20T03:47:28;101273.81;;;8.48;69.02
71344;BME280;59146;43.850;25.948;2023-02-20T03:49:55;101339.72;;;8.94;68.69
71344;BME280;59146;43.850;25.948;2023-02-20T03:52:21;101269.47;;;8.70;67.96
71344;BME280;59146;43.850;25.948;2023-02-20T03:54:48;101332.19;;;8.86;68.77
71344;BME280;59146;43.850;25.948;2023-02-20T03:57:17;101327.09;;;8.61;69.89
71344;BME280;59146;43.850;25.948;2023-02-20T03:59:50;101346.31;;;8.80;69.60
71344;BME280;59146;43.850;25.948;2023-02-20T04:02:24;101366.19;;;9.05;68.70
71344;BME280;59146;43.850;25.948;2023-02-20T04:04:52;101355.19;;;8.97;68.45
71344;BME280;59146;43.850;25.948;2023-02-20T04:07:33;101334.50;;;8.94;68.35
71344;BME280;59146;43.850;25.948;2023-02-20T04:10:01;101282.50;;;8.91;67.29
71344;BME280;59146;43.850;25.948;2023-02-20T04:12:35;101343.28;;;9.33;66.94
71344;BME280;59146;43.850;25.948;2023-02-20T04:15:04;101274.84;;;8.88;67.19
71344;BME280;59146;43.850;25.948;2023-02-20T04:17:34;101274.66;;;8.70;67.69
71344;BME280;59146;43.850;25.948;2023-02-20T04:20:03;101359.53;;;9.18;68.03
71344;BME280;59146;43.850;25.948;2023-02-20T04:22:37;101288.47;;;8.72;67.92
71344;BME280;59146;43.850;25.948;2023-02-20T04:25:17;101347.38;;;8.97;68.15
71344;BME280;59146;43.850;25.948;2023-02-20T04:27:45;101326.19;;;8.84;68.73
71344;BME280;59146;43.850;25.948;2023-02-20T04:30:11;101310.44;;;8.87;67.84
71344;BME280;59146;43.850;25.948;2023-02-20T04:32:37;101322.75;;;8.84;67.94
71344;BME280;59146;43.850;25.948;2023-02-20T04:35:02;101364.66;;;8.99;68.54
71344;BME280;59146;43.850;25.948;2023-02-20T04:37:28;101392.94;;;9.30;67.99
71344;BME280;59146;43.850;25.948;2023-02-20T04:39:53;101378.91;;;9.32;67.72
71344;BME280;59146;43.850;25.948;2023-02-20T04:42:19;101337.91;;;9.16;66.92
71344;BME280;59146;43.850;25.948;2023-02-20T04:44:44;101390.97;;;8.93;67.16
71344;BME280;59146;43.850;25.948;2023-02-20T04:47:15;101429.75;;;8.79;64.64
71344;BME280;59146;43.850;25.948;2023-02-20T04:49:41;101361.50;;;8.01;62.33
71344;BME280;59146;43.850;25.948;2023-02-20T04:52:06;101362.38;;;7.53;61.70
71344;BME280;59146;43.850;25.948;2023-02-20T04:54:32;101368.06;;;7.13;62.46
71344;BME280;59146;43.850;25.948;2023-02-20T04:56:57;101439.19;;;7.37;62.40
71344;BME280;59146;43.850;25.948;2023-02-20T04:59:23;101368.94;;;6.86;62.76
71344;BME280;59146;43.850;25.948;2023-02-20T05:01:50;101361.25;;;6.55;63.42
71344;BME280;59146;43.850;25.948;2023-02-20T05:04:19;101434.78;;;6.85;63.40
71344;BME280;59146;43.850;25.948;2023-02-20T05:06:49;101368.47;;;6.46;63.34
71344;BME280;59146;43.850;25.948;2023-02-20T05:09:14;101442.25;;;6.66;63.66
71344;BME280;59146;43.850;25.948;2023-02-20T05:11:40;101435.81;;;6.50;63.60
71344;BME280;59146;43.850;25.948;2023-02-20T05:14:06;101460.34;;;6.69;63.56
71344;BME280;59146;43.850;25.948;2023-02-20T05:16:32;101459.16;;;6.50;63.20
71344;BME280;59146;43.850;25.948;2023-02-20T05:18:57;101481.34;;;6.62;63.05
71344;BME280;59146;43.850;25.948;2023-02-20T05:21:26;101442.72;;;6.50;62.76
71344;BME280;59146;43.850;25.948;2023-02-20T05:24:09;101454.16;;;6.44;63.01
71344;BME280;59146;43.850;25.948;2023-02-20T05:26:35;101490.31;;;6.50;61.85
71344;BME280;59146;43.850;25.948;2023-02-20T05:29:00;101431.69;;;6.12;60.44
71344;BME280;59146;43.850;25.948;2023-02-20T05:31:26;101493.13;;;6.43;58.65
71344;BME280;59146;43.850;25.948;2023-02-20T05:33:51;101464.03;;;6.01;57.69
71344;BME280;59146;43.850;25.948;2023-02-20T05:36:17;101449.47;;;5.95;57.29
71344;BME280;59146;43.850;25.948;2023-02-20T05:38:42;101441.22;;;5.78;57.20
71344;BME280;59146;43.850;25.948;2023-02-20T05:41:14;101523.81;;;6.27;57.39
71344;BME280;59146;43.850;25.948;2023-02-20T05:43:39;101506.63;;;6.23;57.15
71344;BME280;59146;43.850;25.948;2023-02-20T05:46:04;101538.00;;;6.46;56.83
71344;BME280;59146;43.850;25.948;2023-02-20T05:48:30;101526.38;;;6.28;57.02
71344;BME280;59146;43.850;25.948;2023-02-20T05:50:55;101570.38;;;6.33;57.31
71344;BME280;59146;43.850;25.948;2023-02-20T05:53:21;101529.94;;;6.26;56.92
71344;BME280;59146;43.850;25.948;2023-02-20T05:55:46;101582.06;;;6.49;56.87
71344;BME280;59146;43.850;25.948;2023-02-20T05:58:11;101506.03;;;5.80;57.50
71344;BME280;59146;43.850;25.948;2023-02-20T06:00:37;101511.28;;;5.77;57.92
71344;BME280;59146;43.850;25.948;2023-02-20T06:03:06;101582.81;;;6.20;57.65
71344;BME280;59146;43.850;25.948;2023-02-20T06:05:31;101552.03;;;6.07;58.08
71344;BME280;59146;43.850;25.948;2023-02-20T06:07:57;101554.97;;;5.95;58.28
71344;BME280;59146;43.850;25.948;2023-02-20T06:10:22;101593.44;;;6.10;58.71
71344;BME280;59146;43.850;25.948;2023-02-20T06:12:48;101548.25;;;5.85;58.66
71344;BME280;59146;43.850;25.948;2023-02-20T06:15:13;101559.00;;;6.05;57.75
71344;BME280;59146;43.850;25.948;2023-02-20T06:17:39;101533.53;;;5.87;57.54
71344;BME280;59146;43.850;25.948;2023-02-20T06:20:04;101617.47;;;6.18;58.32
71344;BME280;59146;43.850;25.948;2023-02-20T06:22:30;101582.63;;;5.94;58.61
71344;BME280;59146;43.850;25.948;2023-02-20T06:24:55;101647.06;;;6.11;59.09
71344;BME280;59146;43.850;25.948;2023-02-20T06:27:21;101637.56;;;6.10;59.45
71344;BME280;59146;43.850;25.948;2023-02-20T06:29:47;101558.03;;;5.72;59.54
71344;BME280;59146;43.850;25.948;2023-02-20T06:32:12;101598.22;;;5.93;59.25
71344;BME280;59146;43.850;25.948;2023-02-20T06:34:37;101641.66;;;6.20;59.14
71344;BME280;59146;43.850;25.948;2023-02-20T06:37:03;101584.84;;;5.73;59.58
71344;BME280;59146;43.850;25.948;2023-02-20T06:39:30;101601.63;;;5.95;59.29
71344;BME280;59146;43.850;25.948;2023-02-20T06:41:56;101629.84;;;6.07;58.81
71344;BME280;59146;43.850;25.948;2023-02-20T06:44:22;101639.00;;;6.21;57.83
71344;BME280;59146;43.850;25.948;2023-02-20T06:46:47;101599.38;;;5.80;57.96
71344;BME280;59146;43.850;25.948;2023-02-20T06:49:13;101652.16;;;6.14;56.89
71344;BME280;59146;43.850;25.948;2023-02-20T06:51:39;101640.13;;;6.11;56.03
71344;BME280;59146;43.850;25.948;2023-02-20T06:54:05;101649.44;;;6.20;55.69
71344;BME280;59146;43.850;25.948;2023-02-20T06:56:32;101606.81;;;5.95;55.19
71344;BME280;59146;43.850;25.948;2023-02-20T06:58:59;101697.91;;;6.53;54.68
71344;BME280;59146;43.850;25.948;2023-02-20T07:01:29;101685.34;;;6.35;54.96
71344;BME280;59146;43.850;25.948;2023-02-20T07:03:56;101686.00;;;6.45;54.94
71344;BME280;59146;43.850;25.948;2023-02-20T07:06:23;101700.88;;;6.38;55.35
71344;BME280;59146;43.850;25.948;2023-02-20T07:08:49;101637.81;;;5.99;55.53
71344;BME280;59146;43.850;25.948;2023-02-20T07:11:17;101671.22;;;6.13;55.72
71344;BME280;59146;43.850;25.948;2023-02-20T07:13:43;101681.75;;;6.05;55.81
71344;BME280;59146;43.850;25.948;2023-02-20T07:16:09;101705.59;;;6.21;56.01
71344;BME280;59146;43.850;25.948;2023-02-20T07:18:34;101679.03;;;6.11;56.18
71344;BME280;59146;43.850;25.948;2023-02-20T07:20:59;101668.09;;;5.99;56.40
71344;BME280;59146;43.850;25.948;2023-02-20T07:23:25;101655.94;;;6.01;55.74
71344;BME280;59146;43.850;25.948;2023-02-20T07:25:50;101728.66;;;6.34;56.12
71344;BME280;59146;43.850;25.948;2023-02-20T07:28:17;101722.03;;;6.21;56.72
71344;BME280;59146;43.850;25.948;2023-02-20T07:30:43;101722.34;;;6.43;56.40
71344;BME280;59146;43.850;25.948;2023-02-20T07:33:09;101633.63;;;6.29;55.47
71344;BME280;59146;43.850;25.948;2023-02-20T07:35:35;101659.94;;;6.49;55.09
71344;BME280;59146;43.850;25.948;2023-02-20T07:38:00;101714.25;;;6.57;55.58
71344;BME280;59146;43.850;25.948;2023-02-20T07:40:26;101663.94;;;6.27;56.28
71344;BME280;59146;43.850;25.948;2023-02-20T07:42:51;101697.66;;;6.62;55.70
71344;BME280;59146;43.850;25.948;2023-02-20T07:45:16;101689.47;;;6.43;55.87
71344;BME280;59146;43.850;25.948;2023-02-20T07:47:42;101749.03;;;6.83;55.56
71344;BME280;59146;43.850;25.948;2023-02-20T07:50:07;101733.97;;;6.97;55.30
71344;BME280;59146;43.850;25.948;2023-02-20T07:52:33;101709.75;;;6.95;55.00
71344;BME280;59146;43.850;25.948;2023-02-20T07:54:58;101780.59;;;7.34;55.05
71344;BME280;59146;43.850;25.948;2023-02-20T07:57:24;101718.00;;;6.79;55.09
71344;BME280;59146;43.850;25.948;2023-02-20T07:59:49;101688.28;;;6.57;55.34
71344;BME280;59146;43.850;25.948;2023-02-20T08:02:15;101749.13;;;6.80;55.26
71344;BME280;59146;43.850;25.948;2023-02-20T08:04:40;101793.38;;;6.76;56.22
71344;BME280;59146;43.850;25.948;2023-02-20T08:07:05;101779.19;;;6.54;56.80
71344;BME280;59146;43.850;25.948;2023-02-20T08:09:31;101722.88;;;6.57;56.25
71344;BME280;59146;43.850;25.948;2023-02-20T08:11:57;101783.94;;;6.73;55.85
71344;BME280;59146;43.850;25.948;2023-02-20T08:14:22;101783.94;;;6.73;56.45
71344;BME280;59146;43.850;25.948;2023-02-20T08:16:48;101756.13;;;6.41;56.86
71344;BME280;59146;43.850;25.948;2023-02-20T08:19:13;101762.38;;;6.70;56.23
71344;BME280;59146;43.850;25.948;2023-02-20T08:21:38;101761.31;;;6.78;55.73
71344;BME280;59146;43.850;25.948;2023-02-20T08:24:04;101812.72;;;6.99;56.17
71344;BME280;59146;43.850;25.948;2023-02-20T08:26:30;101775.69;;;6.56;56.20
71344;BME280;59146;43.850;25.948;2023-02-20T08:28:56;101764.50;;;6.54;56.42
71344;BME280;59146;43.850;25.948;2023-02-20T08:31:21;101810.00;;;6.69;57.03
71344;BME280;59146;43.850;25.948;2023-02-20T08:33:46;101823.22;;;6.95;56.79
71344;BME280;59146;43.850;25.948;2023-02-20T08:36:12;101787.66;;;6.25;57.76
71344;BME280;59146;43.850;25.948;2023-02-20T08:38:39;101803.28;;;5.84;59.23
71344;BME280;59146;43.850;25.948;2023-02-20T08:41:07;101877.16;;;6.46;58.61
71344;BME280;59146;43.850;25.948;2023-02-20T08:43:34;101660.63;;;5.45;57.86
71344;BME280;59146;43.850;25.948;2023-02-20T08:46:00;101848.09;;;6.68;57.76
71344;BME280;59146;43.850;25.948;2023-02-20T08:48:26;101817.72;;;6.35;58.11
71344;BME280;59146;43.850;25.948;2023-02-20T08:50:52;101805.41;;;6.43;58.11
71344;BME280;59146;43.850;25.948;2023-02-20T08:53:18;101796.94;;;6.35;57.59
71344;BME280;59146;43.850;25.948;2023-02-20T08:55:43;101802.72;;;6.48;57.66
71344;BME280;59146;43.850;25.948;2023-02-20T08:58:09;101816.16;;;6.28;58.21
71344;BME280;59146;43.850;25.948;2023-02-20T09:00:34;101859.03;;;6.44;58.51
71344;BME280;59146;43.850;25.948;2023-02-20T09:03:00;101856.41;;;6.46;58.76
71344;BME280;59146;43.850;25.948;2023-02-20T09:05:26;101853.34;;;6.27;59.16
71344;BME280;59146;43.850;25.948;2023-02-20T09:07:52;101826.09;;;6.08;58.85
71344;BME280;59146;43.850;25.948;2023-02-20T09:10:18;101876.38;;;6.42;58.80
71344;BME280;59146;43.850;25.948;2023-02-20T09:12:45;101871.34;;;6.36;59.01
71344;BME280;59146;43.850;25.948;2023-02-20T09:15:11;101844.94;;;6.16;58.87
71344;BME280;59146;43.850;25.948;2023-02-20T09:17:37;101812.47;;;5.98;58.90
71344;BME280;59146;43.850;25.948;2023-02-20T09:20:02;101884.53;;;6.25;59.13
71344;BME280;59146;43.850;25.948;2023-02-20T09:22:29;101837.00;;;5.82;59.52
71344;BME280;59146;43.850;25.948;2023-02-20T09:24:54;101816.44;;;5.73;59.60
71344;BME280;59146;43.850;25.948;2023-02-20T09:27:20;101858.59;;;6.25;59.08
71344;BME280;59146;43.850;25.948;2023-02-20T09:29:45;101877.16;;;6.46;58.73
71344;BME280;59146;43.850;25.948;2023-02-20T09:32:12;101881.69;;;6.76;58.23
71344;BME280;59146;43.850;25.948;2023-02-20T09:34:37;101789.97;;;6.38;57.28
71344;BME280;59146;43.850;25.948;2023-02-20T09:37:02;101869.56;;;6.75;56.96
71344;BME280;59146;43.850;25.948;2023-02-20T09:39:29;101869.31;;;6.87;56.85
71344;BME280;59146;43.850;25.948;2023-02-20T09:50:36;101669.69;;;6.39;55.85
71344;BME280;59146;43.850;25.948;2023-02-20T09:55:51;101814.03;;;7.48;54.29
71344;BME280;59146;43.850;25.948;2023-02-20T10:00:49;101808.19;;;7.06;55.26
71344;BME280;59146;43.850;25.948;2023-02-20T10:03:46;101832.72;;;7.30;54.81
71344;BME280;59146;43.850;25.948;2023-02-20T10:06:15;101844.16;;;7.87;53.54
71344;BME280;59146;43.850;25.948;2023-02-20T10:08:41;101792.66;;;7.37;53.62
71344;BME280;59146;43.850;25.948;2023-02-20T10:11:09;101831.38;;;7.78;53.49
71344;BME280;59146;43.850;25.948;2023-02-20T10:16:40;101876.97;;;8.51;50.67
71344;BME280;59146;43.850;25.948;2023-02-20T10:30:09;101802.56;;;8.15;50.95
71344;BME280;59146;43.850;25.948;2023-02-20T10:32:45;101809.69;;;8.08;51.63
71344;BME280;59146;43.850;25.948;2023-02-20T10:35:21;101854.63;;;8.44;51.74
71344;BME280;59146;43.850;25.948;2023-02-20T10:37:53;101821.75;;;8.67;50.62
71344;BME280;59146;43.850;25.948;2023-02-20T10:43:03;101823.28;;;8.74;51.17
71344;BME280;59146;43.850;25.948;2023-02-20T10:45:43;101835.56;;;8.71;51.06
71344;BME280;59146;43.850;25.948;2023-02-20T10:48:11;101833.97;;;8.65;51.07
71344;BME280;59146;43.850;25.948;2023-02-20T10:50:57;101727.25;;;8.38;50.45
71344;BME280;59146;43.850;25.948;2023-02-20T10:59:20;101838.88;;;9.02;48.92
71344;BME280;59146;43.850;25.948;2023-02-20T11:01:27;101821.50;;;9.01;48.96
71344;BME280;59146;43.850;25.948;2023-02-20T11:06:24;101767.75;;;9.71;47.13
71344;BME280;59146;43.850;25.948;2023-02-20T11:08:51;101809.28;;;10.23;46.67
71344;BME280;59146;43.850;25.948;2023-02-20T11:11:30;101827.88;;;9.91;47.18
71344;BME280;59146;43.850;25.948;2023-02-20T11:14:04;101771.97;;;9.27;47.85
71344;BME280;59146;43.850;25.948;2023-02-20T11:16:40;101739.59;;;9.56;47.03
71344;BME280;59146;43.850;25.948;2023-02-20T11:19:29;101784.66;;;9.84;47.06
71344;BME280;59146;43.850;25.948;2023-02-20T11:21:57;101767.59;;;9.28;48.11
71344;BME280;59146;43.850;25.948;2023-02-20T11:26:49;101777.56;;;9.65;47.48
71344;BME280;59146;43.850;25.948;2023-02-20T11:29:21;101747.66;;;9.73;46.51
71344;BME280;59146;43.850;25.948;2023-02-20T11:31:47;101797.00;;;10.25;46.29
71344;BME280;59146;43.850;25.948;2023-02-20T11:34:20;101771.88;;;10.00;46.27
71344;BME280;59146;43.850;25.948;2023-02-20T11:36:53;101760.56;;;9.99;46.24
71344;BME280;59146;43.850;25.948;2023-02-20T11:41:47;101732.38;;;10.09;46.29
71344;BME280;59146;43.850;25.948;2023-02-20T11:44:19;101732.69;;;10.23;47.32
71344;BME280;59146;43.850;25.948;2023-02-20T11:46:46;101779.41;;;10.52;45.58
71344;BME280;59146;43.850;25.948;2023-02-20T11:49:30;101642.03;;;10.05;45.22
71344;BME280;59146;43.850;25.948;2023-02-20T11:54:39;101733.66;;;11.04;43.98
71344;BME280;59146;43.850;25.948;2023-02-20T12:02:33;101702.22;;;11.05;43.95
71344;BME280;59146;43.850;25.948;2023-02-20T12:05:12;101764.09;;;11.25;43.38
71344;BME280;59146;43.850;25.948;2023-02-20T12:12:56;101773.47;;;11.10;44.81
71344;BME280;59146;43.850;25.948;2023-02-20T12:15:24;101731.97;;;11.03;42.68
71344;BME280;59146;43.850;25.948;2023-02-20T12:20:45;101718.91;;;10.83;43.72
71344;BME280;59146;43.850;25.948;2023-02-20T12:25:57;101777.25;;;11.24;43.52
71344;BME280;59146;43.850;25.948;2023-02-20T12:29:03;101768.94;;;10.94;45.14
71344;BME280;59146;43.850;25.948;2023-02-20T12:37:06;101715.47;;;11.60;43.91
71344;BME280;59146;43.850;25.948;2023-02-20T12:42:40;101698.06;;;11.01;44.08
71344;BME280;59146;43.850;25.948;2023-02-20T12:53:41;101772.84;;;11.44;43.44
71344;BME280;59146;43.850;25.948;2023-02-20T12:59:34;101757.94;;;12.04;42.19
71344;BME280;59146;43.850;25.948;2023-02-20T13:02:32;101761.34;;;11.87;42.19
71344;BME280;59146;43.850;25.948;2023-02-20T13:05:00;101762.88;;;11.52;44.27
71344;BME280;59146;43.850;25.948;2023-02-20T13:07:53;101744.91;;;11.83;43.48
71344;BME280;59146;43.850;25.948;2023-02-20T13:10:23;101746.47;;;12.25;42.65
71344;BME280;59146;43.850;25.948;2023-02-20T13:12:50;101682.88;;;11.85;42.17
71344;BME280;59146;43.850;25.948;2023-02-20T13:18:32;101735.75;;;11.75;43.42
71344;BME280;59146;43.850;25.948;2023-02-20T13:21:04;101726.38;;;11.88;42.67
71344;BME280;59146;43.850;25.948;2023-02-20T13:23:35;101746.19;;;12.12;42.25
71344;BME280;59146;43.850;25.948;2023-02-20T13:26:02;101668.94;;;11.48;43.19
71344;BME280;59146;43.850;25.948;2023-02-20T13:28:41;101670.31;;;11.36;43.20
71344;BME280;59146;43.850;25.948;2023-02-20T13:31:12;101736.34;;;11.98;42.95
71344;BME280;59146;43.850;25.948;2023-02-20T13:33:42;101718.78;;;12.01;42.64
71344;BME280;59146;43.850;25.948;2023-02-20T14:02:53;101680.50;;;11.61;42.39
71344;BME280;59146;43.850;25.948;2023-02-20T14:05:26;101677.88;;;11.81;42.49
71344;BME280;59146;43.850;25.948;2023-02-20T14:07:52;101685.25;;;11.53;43.65
71344;BME280;59146;43.850;25.948;2023-02-20T14:13:00;101708.72;;;11.74;43.61
71344;BME280;59146;43.850;25.948;2023-02-20T14:15:27;101713.25;;;11.89;43.34
71344;BME280;59146;43.850;25.948;2023-02-20T14:17:55;101660.53;;;11.21;43.74
71344;BME280;59146;43.850;25.948;2023-02-20T14:20:25;101692.13;;;11.55;43.90
71344;BME280;59146;43.850;25.948;2023-02-20T14:23:09;101662.28;;;11.59;43.11
71344;BME280;59146;43.850;25.948;2023-02-20T14:25:39;101617.94;;;11.38;42.63
71344;BME280;59146;43.850;25.948;2023-02-20T14:28:13;101680.72;;;11.56;43.45
71344;BME280;59146;43.850;25.948;2023-02-20T14:30:39;101704.25;;;11.76;43.57
71344;BME280;59146;43.850;25.948;2023-02-20T14:33:21;101667.81;;;11.72;43.43
71344;BME280;59146;43.850;25.948;2023-02-20T14:39:02;101655.50;;;11.74;42.41
71344;BME280;59146;43.850;25.948;2023-02-20T14:41:32;101583.72;;;11.05;43.91
71344;BME280;59146;43.850;25.948;2023-02-20T14:44:04;101664.25;;;11.54;43.67
71344;BME280;59146;43.850;25.948;2023-02-20T14:46:34;101703.84;;;11.85;43.34
71344;BME280;59146;43.850;25.948;2023-02-20T14:51:33;101689.56;;;11.35;44.57
71344;BME280;59146;43.850;25.948;2023-02-20T14:54:22;101714.09;;;11.51;44.75
71344;BME280;59146;43.850;25.948;2023-02-20T14:56:49;101720.81;;;11.57;44.43
71344;BME280;59146;43.850;25.948;2023-02-20T14:59:31;101693.53;;;11.62;44.21
71344;BME280;59146;43.850;25.948;2023-02-20T15:02:11;101722.84;;;11.70;44.20
71344;BME280;59146;43.850;25.948;2023-02-20T15:04:46;101596.84;;;10.65;45.80
71344;BME280;59146;43.850;25.948;2023-02-20T15:07:11;101645.03;;;10.98;45.61
71344;BME280;59146;43.850;25.948;2023-02-20T15:09:44;101696.59;;;11.33;45.42
71344;BME280;59146;43.850;25.948;2023-02-20T15:12:22;101666.53;;;11.04;45.35
71344;BME280;59146;43.850;25.948;2023-02-20T15:15:00;101663.88;;;10.86;46.36
71344;BME280;59146;43.850;25.948;2023-02-20T15:18:00;101582.94;;;10.44;46.03
71344;BME280;59146;43.850;25.948;2023-02-20T15:20:34;101683.56;;;11.13;46.02
71344;BME280;59146;43.850;25.948;2023-02-20T15:23:20;101678.53;;;11.29;45.99
71344;BME280;59146;43.850;25.948;2023-02-20T15:25:48;101675.78;;;10.93;46.63
71344;BME280;59146;43.850;25.948;2023-02-20T15:31:05;101675.81;;;10.71;47.80